sensor_id;sensor_type;location;lat;lon;timestamp;P1;durP1;ratioP1;P2;durP2;ratioP2
45650;SDS011;31365;48.858;8.530;2023-09-18T00:00:08;2.58;;;1.60;;
45650;SDS011;31365;48.858;8.530;2023-09-18T00:02:38;3.00;;;1.90;;
45650;SDS011;31365;48.858;8.530;2023-09-18T00:05:07;4.47;;;2.00;;
45650;SDS011;31365;48.858;8.530;2023-09-18T00:07:35;4.18;;;1.90;;
45650;SDS011;31365;48.858;8.530;2023-09-18T00:10:04;3.08;;;2.00;;
45650;SDS011;31365;48.858;8.530;2023-09-18T00:12:32;7.90;;;2.20;;
45650;SDS011;31365;48.858;8.530;2023-09-18T00:15:02;3.17;;;1.85;;
45650;SDS011;31365;48.858;8.530;2023-09-18T00:17:32;2.90;;;1.80;;
45650;SDS011;31365;48.858;8.530;2023-09-18T00:20:01;4.73;;;2.00;;
45650;SDS011;31365;48.858;8.530;2023-09-18T00:22:31;2.88;;;1.90;;
45650;SDS011;31365;48.858;8.530;2023-09-18T00:25:00;3.58;;;1.83;;
45650;SDS011;31365;48.858;8.530;2023-09-18T00:27:29;3.03;;;2.00;;
45650;SDS011;31365;48.858;8.530;2023-09-18T00:29:59;5.67;;;2.27;;
45650;SDS011;31365;48.858;8.530;2023-09-18T00:32:29;4.80;;;2.00;;
45650;SDS011;31365;48.858;8.530;2023-09-18T00:34:59;3.97;;;2.00;;
45650;SDS011;31365;48.858;8.530;2023-09-18T00:37:28;4.57;;;2.03;;
45650;SDS011;31365;48.858;8.530;2023-09-18T00:39:56;5.70;;;2.00;;
45650;SDS011;31365;48.858;8.530;2023-09-18T00:42:25;4.13;;;2.30;;
45650;SDS011;31365;48.858;8.530;2023-09-18T00:44:54;6.60;;;2.25;;
45650;SDS011;31365;48.858;8.530;2023-09-18T00:47:24;9.20;;;2.40;;
45650;SDS011;31365;48.858;8.530;2023-09-18T00:49:57;5.90;;;1.95;;
45650;SDS011;31365;48.858;8.530;2023-09-18T00:52:25;5.97;;;2.20;;
45650;SDS011;31365;48.858;8.530;2023-09-18T00:54:55;5.90;;;2.20;;
45650;SDS011;31365;48.858;8.530;2023-09-18T00:57:23;3.95;;;1.95;;
45650;SDS011;31365;48.858;8.530;2023-09-18T00:59:52;5.53;;;2.00;;
45650;SDS011;31365;48.858;8.530;2023-09-18T01:02:20;4.32;;;2.05;;
45650;SDS011;31365;48.858;8.530;2023-09-18T01:04:50;6.00;;;2.17;;
45650;SDS011;31365;48.858;8.530;2023-09-18T01:07:18;5.20;;;2.60;;
45650;SDS011;31365;48.858;8.530;2023-09-18T01:09:46;5.77;;;2.10;;
45650;SDS011;31365;48.858;8.530;2023-09-18T01:12:16;4.23;;;2.30;;
45650;SDS011;31365;48.858;8.530;2023-09-18T01:14:59;5.60;;;2.10;;
45650;SDS011;31365;48.858;8.530;2023-09-18T01:17:39;5.57;;;2.20;;
45650;SDS011;31365;48.858;8.530;2023-09-18T01:20:11;3.30;;;1.90;;
45650;SDS011;31365;48.858;8.530;2023-09-18T01:22:41;3.63;;;1.80;;
45650;SDS011;31365;48.858;8.530;2023-09-18T01:25:10;7.00;;;1.95;;
45650;SDS011;31365;48.858;8.530;2023-09-18T01:27:38;3.97;;;1.80;;
45650;SDS011;31365;48.858;8.530;2023-09-18T01:30:07;5.32;;;2.00;;
45650;SDS011;31365;48.858;8.530;2023-09-18T01:32:36;4.28;;;2.03;;
45650;SDS011;31365;48.858;8.530;2023-09-18T01:35:06;3.75;;;1.88;;
45650;SDS011;31365;48.858;8.530;2023-09-18T01:37:39;3.42;;;1.90;;
45650;SDS011;31365;48.858;8.530;2023-09-18T01:40:09;4.20;;;1.80;;
45650;SDS011;31365;48.858;8.530;2023-09-18T01:42:38;5.32;;;1.98;;
45650;SDS011;31365;48.858;8.530;2023-09-18T01:45:08;3.47;;;1.83;;
45650;SDS011;31365;48.858;8.530;2023-09-18T01:47:37;6.07;;;2.30;;
45650;SDS011;31365;48.858;8.530;2023-09-18T01:50:06;5.20;;;1.95;;
45650;SDS011;31365;48.858;8.530;2023-09-18T01:52:35;3.63;;;1.95;;
45650;SDS011;31365;48.858;8.530;2023-09-18T01:55:05;4.10;;;2.03;;
45650;SDS011;31365;48.858;8.530;2023-09-18T01:57:35;4.35;;;1.77;;
45650;SDS011;31365;48.858;8.530;2023-09-18T02:00:04;5.22;;;2.00;;
45650;SDS011;31365;48.858;8.530;2023-09-18T02:02:38;4.28;;;1.67;;
45650;SDS011;31365;48.858;8.530;2023-09-18T02:05:10;4.63;;;2.15;;
45650;SDS011;31365;48.858;8.530;2023-09-18T02:07:39;6.37;;;2.07;;
45650;SDS011;31365;48.858;8.530;2023-09-18T02:10:09;7.32;;;2.17;;
45650;SDS011;31365;48.858;8.530;2023-09-18T02:12:39;7.33;;;2.50;;
45650;SDS011;31365;48.858;8.530;2023-09-18T02:15:07;6.32;;;2.45;;
45650;SDS011;31365;48.858;8.530;2023-09-18T02:17:37;6.03;;;2.65;;
45650;SDS011;31365;48.858;8.530;2023-09-18T02:20:06;8.23;;;2.42;;
45650;SDS011;31365;48.858;8.530;2023-09-18T02:22:38;7.30;;;2.65;;
45650;SDS011;31365;48.858;8.530;2023-09-18T02:25:08;7.95;;;2.80;;
45650;SDS011;31365;48.858;8.530;2023-09-18T02:27:37;8.25;;;2.42;;
45650;SDS011;31365;48.858;8.530;2023-09-18T02:30:06;4.85;;;2.45;;
45650;SDS011;31365;48.858;8.530;2023-09-18T02:32:36;6.22;;;2.63;;
45650;SDS011;31365;48.858;8.530;2023-09-18T02:35:05;7.40;;;2.80;;
45650;SDS011;31365;48.858;8.530;2023-09-18T02:37:35;5.80;;;2.35;;
45650;SDS011;31365;48.858;8.530;2023-09-18T02:40:06;9.85;;;3.15;;
45650;SDS011;31365;48.858;8.530;2023-09-18T02:42:37;8.38;;;2.80;;
45650;SDS011;31365;48.858;8.530;2023-09-18T02:45:06;8.13;;;2.87;;
45650;SDS011;31365;48.858;8.530;2023-09-18T02:47:36;9.40;;;3.37;;
45650;SDS011;31365;48.858;8.530;2023-09-18T02:50:07;7.70;;;2.97;;
45650;SDS011;31365;48.858;8.530;2023-09-18T02:52:38;7.00;;;3.38;;
45650;SDS011;31365;48.858;8.530;2023-09-18T02:55:07;8.30;;;3.05;;
45650;SDS011;31365;48.858;8.530;2023-09-18T02:57:37;8.45;;;2.95;;
45650;SDS011;31365;48.858;8.530;2023-09-18T03:00:06;7.38;;;3.03;;
45650;SDS011;31365;48.858;8.530;2023-09-18T03:02:36;8.23;;;2.78;;
45650;SDS011;31365;48.858;8.530;2023-09-18T03:05:04;8.40;;;2.80;;
45650;SDS011;31365;48.858;8.530;2023-09-18T03:07:35;7.72;;;3.17;;
45650;SDS011;31365;48.858;8.530;2023-09-18T03:10:04;9.15;;;3.50;;
45650;SDS011;31365;48.858;8.530;2023-09-18T03:12:36;11.30;;;3.65;;
45650;SDS011;31365;48.858;8.530;2023-09-18T03:15:04;12.07;;;3.60;;
45650;SDS011;31365;48.858;8.530;2023-09-18T03:17:36;6.82;;;3.00;;
45650;SDS011;31365;48.858;8.530;2023-09-18T03:20:04;9.07;;;3.20;;
45650;SDS011;31365;48.858;8.530;2023-09-18T03:22:34;8.30;;;3.42;;
45650;SDS011;31365;48.858;8.530;2023-09-18T03:25:02;10.30;;;3.65;;
45650;SDS011;31365;48.858;8.530;2023-09-18T03:27:32;10.10;;;3.40;;
45650;SDS011;31365;48.858;8.530;2023-09-18T03:30:02;8.23;;;3.53;;
45650;SDS011;31365;48.858;8.530;2023-09-18T03:32:31;9.63;;;3.55;;
45650;SDS011;31365;48.858;8.530;2023-09-18T03:35:00;11.00;;;3.80;;
45650;SDS011;31365;48.858;8.530;2023-09-18T03:37:29;9.50;;;3.00;;
45650;SDS011;31365;48.858;8.530;2023-09-18T03:39:57;10.03;;;3.40;;
45650;SDS011;31365;48.858;8.530;2023-09-18T03:42:26;19.53;;;3.90;;
45650;SDS011;31365;48.858;8.530;2023-09-18T03:44:54;12.18;;;3.72;;
45650;SDS011;31365;48.858;8.530;2023-09-18T03:47:25;12.43;;;3.23;;
45650;SDS011;31365;48.858;8.530;2023-09-18T03:49:53;12.25;;;3.90;;
45650;SDS011;31365;48.858;8.530;2023-09-18T03:52:22;11.50;;;3.55;;
45650;SDS011;31365;48.858;8.530;2023-09-18T03:54:50;12.73;;;3.90;;
45650;SDS011;31365;48.858;8.530;2023-09-18T03:57:19;10.73;;;3.47;;
45650;SDS011;31365;48.858;8.530;2023-09-18T03:59:47;8.02;;;3.72;;
45650;SDS011;31365;48.858;8.530;2023-09-18T04:02:15;8.95;;;3.70;;
45650;SDS011;31365;48.858;8.530;2023-09-18T04:04:45;9.90;;;3.70;;
45650;SDS011;31365;48.858;8.530;2023-09-18T04:07:13;9.93;;;3.58;;
45650;SDS011;31365;48.858;8.530;2023-09-18T04:09:43;8.93;;;3.75;;
45650;SDS011;31365;48.858;8.530;2023-09-18T04:12:11;8.18;;;3.55;;
45650;SDS011;31365;48.858;8.530;2023-09-18T04:14:40;10.68;;;3.90;;
45650;SDS011;31365;48.858;8.530;2023-09-18T04:17:08;8.70;;;3.50;;
45650;SDS011;31365;48.858;8.530;2023-09-18T04:19:37;9.05;;;3.97;;
45650;SDS011;31365;48.858;8.530;2023-09-18T04:22:07;10.65;;;4.00;;
45650;SDS011;31365;48.858;8.530;2023-09-18T04:24:35;11.88;;;3.83;;
45650;SDS011;31365;48.858;8.530;2023-09-18T04:27:04;8.77;;;3.20;;
45650;SDS011;31365;48.858;8.530;2023-09-18T04:29:33;7.87;;;3.20;;
45650;SDS011;31365;48.858;8.530;2023-09-18T04:32:03;6.97;;;3.20;;
45650;SDS011;31365;48.858;8.530;2023-09-18T04:34:32;8.32;;;3.47;;
45650;SDS011;31365;48.858;8.530;2023-09-18T04:37:01;9.45;;;4.38;;
45650;SDS011;31365;48.858;8.530;2023-09-18T04:39:32;10.68;;;3.45;;
45650;SDS011;31365;48.858;8.530;2023-09-18T04:42:03;7.80;;;3.15;;
45650;SDS011;31365;48.858;8.530;2023-09-18T04:44:32;7.88;;;3.53;;
45650;SDS011;31365;48.858;8.530;2023-09-18T04:47:02;6.60;;;3.25;;
45650;SDS011;31365;48.858;8.530;2023-09-18T04:49:30;10.18;;;3.42;;
45650;SDS011;31365;48.858;8.530;2023-09-18T04:51:59;10.00;;;3.35;;
45650;SDS011;31365;48.858;8.530;2023-09-18T04:54:27;7.23;;;3.40;;
45650;SDS011;31365;48.858;8.530;2023-09-18T04:56:57;8.53;;;3.00;;
45650;SDS011;31365;48.858;8.530;2023-09-18T04:59:25;6.68;;;3.10;;
45650;SDS011;31365;48.858;8.530;2023-09-18T05:01:54;6.60;;;2.78;;
45650;SDS011;31365;48.858;8.530;2023-09-18T05:04:22;4.80;;;2.33;;
45650;SDS011;31365;48.858;8.530;2023-09-18T05:06:51;5.60;;;2.40;;
45650;SDS011;31365;48.858;8.530;2023-09-18T05:09:19;4.63;;;1.88;;
45650;SDS011;31365;48.858;8.530;2023-09-18T05:11:48;3.10;;;1.52;;
45650;SDS011;31365;48.858;8.530;2023-09-18T05:14:18;4.30;;;1.85;;
45650;SDS011;31365;48.858;8.530;2023-09-18T05:16:46;6.47;;;1.65;;
45650;SDS011;31365;48.858;8.530;2023-09-18T05:19:14;9.00;;;2.17;;
45650;SDS011;31365;48.858;8.530;2023-09-18T05:21:42;2.53;;;1.42;;
45650;SDS011;31365;48.858;8.530;2023-09-18T05:24:10;3.03;;;1.42;;
45650;SDS011;31365;48.858;8.530;2023-09-18T05:26:39;4.28;;;1.20;;
45650;SDS011;31365;48.858;8.530;2023-09-18T05:29:07;5.45;;;1.60;;
45650;SDS011;31365;48.858;8.530;2023-09-18T05:31:38;2.83;;;1.20;;
45650;SDS011;31365;48.858;8.530;2023-09-18T05:34:06;3.28;;;1.48;;
45650;SDS011;31365;48.858;8.530;2023-09-18T05:36:34;1.40;;;0.90;;
45650;SDS011;31365;48.858;8.530;2023-09-18T05:39:03;3.85;;;1.65;;
45650;SDS011;31365;48.858;8.530;2023-09-18T05:41:33;3.40;;;1.30;;
45650;SDS011;31365;48.858;8.530;2023-09-18T05:44:01;3.03;;;1.50;;
45650;SDS011;31365;48.858;8.530;2023-09-18T05:46:31;2.20;;;1.48;;
45650;SDS011;31365;48.858;8.530;2023-09-18T05:49:00;3.63;;;1.23;;
45650;SDS011;31365;48.858;8.530;2023-09-18T05:51:29;3.85;;;1.40;;
45650;SDS011;31365;48.858;8.530;2023-09-18T05:53:59;2.83;;;1.40;;
45650;SDS011;31365;48.858;8.530;2023-09-18T05:56:28;2.30;;;1.33;;
45650;SDS011;31365;48.858;8.530;2023-09-18T05:58:56;2.60;;;1.27;;
45650;SDS011;31365;48.858;8.530;2023-09-18T06:01:25;2.05;;;1.30;;
45650;SDS011;31365;48.858;8.530;2023-09-18T06:03:54;6.50;;;1.63;;
45650;SDS011;31365;48.858;8.530;2023-09-18T06:06:24;3.75;;;1.70;;
45650;SDS011;31365;48.858;8.530;2023-09-18T06:08:53;1.92;;;1.20;;
45650;SDS011;31365;48.858;8.530;2023-09-18T06:11:21;2.47;;;1.17;;
45650;SDS011;31365;48.858;8.530;2023-09-18T06:13:50;4.60;;;1.50;;
45650;SDS011;31365;48.858;8.530;2023-09-18T06:16:18;5.00;;;1.60;;
45650;SDS011;31365;48.858;8.530;2023-09-18T06:18:47;2.75;;;1.13;;
45650;SDS011;31365;48.858;8.530;2023-09-18T06:21:15;3.38;;;1.50;;
45650;SDS011;31365;48.858;8.530;2023-09-18T06:23:44;6.40;;;1.50;;
45650;SDS011;31365;48.858;8.530;2023-09-18T06:26:13;8.15;;;1.20;;
45650;SDS011;31365;48.858;8.530;2023-09-18T06:28:41;4.20;;;1.50;;
45650;SDS011;31365;48.858;8.530;2023-09-18T06:31:09;2.95;;;1.30;;
45650;SDS011;31365;48.858;8.530;2023-09-18T06:33:38;3.85;;;1.40;;
45650;SDS011;31365;48.858;8.530;2023-09-18T06:36:06;3.10;;;1.25;;
45650;SDS011;31365;48.858;8.530;2023-09-18T06:38:34;4.47;;;1.45;;
45650;SDS011;31365;48.858;8.530;2023-09-18T06:41:04;3.38;;;1.20;;
45650;SDS011;31365;48.858;8.530;2023-09-18T06:43:32;2.85;;;1.08;;
45650;SDS011;31365;48.858;8.530;2023-09-18T06:46:00;5.97;;;1.48;;
45650;SDS011;31365;48.858;8.530;2023-09-18T06:48:28;4.90;;;1.38;;
45650;SDS011;31365;48.858;8.530;2023-09-18T06:50:59;3.45;;;1.50;;
45650;SDS011;31365;48.858;8.530;2023-09-18T06:53:27;2.97;;;1.00;;
45650;SDS011;31365;48.858;8.530;2023-09-18T06:55:56;2.53;;;1.10;;
45650;SDS011;31365;48.858;8.530;2023-09-18T06:58:25;2.85;;;1.10;;
45650;SDS011;31365;48.858;8.530;2023-09-18T07:00:53;3.35;;;1.10;;
45650;SDS011;31365;48.858;8.530;2023-09-18T07:03:24;2.47;;;1.00;;
45650;SDS011;31365;48.858;8.530;2023-09-18T07:05:54;4.07;;;1.20;;
45650;SDS011;31365;48.858;8.530;2023-09-18T07:08:23;1.63;;;1.02;;
45650;SDS011;31365;48.858;8.530;2023-09-18T07:10:51;2.40;;;1.10;;
45650;SDS011;31365;48.858;8.530;2023-09-18T07:13:19;1.80;;;0.90;;
45650;SDS011;31365;48.858;8.530;2023-09-18T07:15:49;2.97;;;0.90;;
45650;SDS011;31365;48.858;8.530;2023-09-18T07:18:17;1.75;;;0.93;;
45650;SDS011;31365;48.858;8.530;2023-09-18T07:20:46;2.97;;;1.25;;
45650;SDS011;31365;48.858;8.530;2023-09-18T07:23:15;1.77;;;1.20;;
45650;SDS011;31365;48.858;8.530;2023-09-18T07:25:43;1.13;;;0.80;;
45650;SDS011;31365;48.858;8.530;2023-09-18T07:28:11;0.68;;;0.65;;
45650;SDS011;31365;48.858;8.530;2023-09-18T07:30:43;3.60;;;1.25;;
45650;SDS011;31365;48.858;8.530;2023-09-18T07:33:13;3.22;;;1.10;;
45650;SDS011;31365;48.858;8.530;2023-09-18T07:35:45;2.95;;;1.05;;
45650;SDS011;31365;48.858;8.530;2023-09-18T07:38:14;1.30;;;0.95;;
45650;SDS011;31365;48.858;8.530;2023-09-18T07:40:43;1.88;;;0.65;;
45650;SDS011;31365;48.858;8.530;2023-09-18T07:43:13;1.52;;;0.60;;
45650;SDS011;31365;48.858;8.530;2023-09-18T07:45:41;2.17;;;0.70;;
45650;SDS011;31365;48.858;8.530;2023-09-18T07:48:09;2.70;;;1.63;;
45650;SDS011;31365;48.858;8.530;2023-09-18T07:50:39;2.20;;;0.82;;
45650;SDS011;31365;48.858;8.530;2023-09-18T07:53:11;1.95;;;1.10;;
45650;SDS011;31365;48.858;8.530;2023-09-18T07:55:39;3.42;;;1.98;;
45650;SDS011;31365;48.858;8.530;2023-09-18T07:58:07;0.70;;;0.70;;
45650;SDS011;31365;48.858;8.530;2023-09-18T08:00:35;1.77;;;0.82;;
45650;SDS011;31365;48.858;8.530;2023-09-18T08:03:03;0.85;;;0.52;;
45650;SDS011;31365;48.858;8.530;2023-09-18T08:05:32;1.33;;;0.85;;
45650;SDS011;31365;48.858;8.530;2023-09-18T08:08:01;0.95;;;0.73;;
45650;SDS011;31365;48.858;8.530;2023-09-18T08:10:31;0.75;;;0.70;;
45650;SDS011;31365;48.858;8.530;2023-09-18T08:13:03;0.80;;;0.80;;
45650;SDS011;31365;48.858;8.530;2023-09-18T08:15:31;0.93;;;0.60;;
45650;SDS011;31365;48.858;8.530;2023-09-18T08:17:59;1.33;;;0.80;;
45650;SDS011;31365;48.858;8.530;2023-09-18T08:20:28;1.63;;;0.70;;
45650;SDS011;31365;48.858;8.530;2023-09-18T08:22:56;1.92;;;0.60;;
45650;SDS011;31365;48.858;8.530;2023-09-18T08:25:28;1.60;;;0.88;;
45650;SDS011;31365;48.858;8.530;2023-09-18T08:27:57;2.47;;;1.05;;
45650;SDS011;31365;48.858;8.530;2023-09-18T08:30:25;2.15;;;1.08;;
45650;SDS011;31365;48.858;8.530;2023-09-18T08:32:54;2.13;;;1.00;;
45650;SDS011;31365;48.858;8.530;2023-09-18T08:35:22;2.83;;;1.42;;
45650;SDS011;31365;48.858;8.530;2023-09-18T08:37:55;6.43;;;1.50;;
45650;SDS011;31365;48.858;8.530;2023-09-18T08:40:23;2.67;;;1.40;;
45650;SDS011;31365;48.858;8.530;2023-09-18T08:42:54;4.82;;;1.38;;
45650;SDS011;31365;48.858;8.530;2023-09-18T08:45:27;3.85;;;1.00;;
45650;SDS011;31365;48.858;8.530;2023-09-18T08:48:05;2.78;;;1.40;;
45650;SDS011;31365;48.858;8.530;2023-09-18T08:50:35;4.40;;;1.20;;
45650;SDS011;31365;48.858;8.530;2023-09-18T08:53:05;2.15;;;1.25;;
45650;SDS011;31365;48.858;8.530;2023-09-18T08:55:34;5.60;;;1.58;;
45650;SDS011;31365;48.858;8.530;2023-09-18T08:58:05;2.03;;;1.00;;
45650;SDS011;31365;48.858;8.530;2023-09-18T09:00:36;1.35;;;1.15;;
45650;SDS011;31365;48.858;8.530;2023-09-18T09:03:05;4.63;;;1.42;;
45650;SDS011;31365;48.858;8.530;2023-09-18T09:05:33;1.08;;;0.80;;
45650;SDS011;31365;48.858;8.530;2023-09-18T09:08:02;2.85;;;1.10;;
45650;SDS011;31365;48.858;8.530;2023-09-18T09:10:30;2.88;;;1.20;;
45650;SDS011;31365;48.858;8.530;2023-09-18T09:12:58;2.13;;;1.00;;
45650;SDS011;31365;48.858;8.530;2023-09-18T09:15:31;3.38;;;1.20;;
45650;SDS011;31365;48.858;8.530;2023-09-18T09:18:12;2.10;;;1.10;;
45650;SDS011;31365;48.858;8.530;2023-09-18T09:20:45;4.75;;;1.23;;
45650;SDS011;31365;48.858;8.530;2023-09-18T09:23:24;3.42;;;1.23;;
45650;SDS011;31365;48.858;8.530;2023-09-18T09:25:54;4.03;;;1.20;;
45650;SDS011;31365;48.858;8.530;2023-09-18T09:28:40;2.20;;;0.90;;
45650;SDS011;31365;48.858;8.530;2023-09-18T09:31:12;3.15;;;1.10;;
45650;SDS011;31365;48.858;8.530;2023-09-18T09:33:52;2.13;;;0.82;;
45650;SDS011;31365;48.858;8.530;2023-09-18T09:36:20;2.25;;;0.82;;
45650;SDS011;31365;48.858;8.530;2023-09-18T09:38:52;1.67;;;1.00;;
45650;SDS011;31365;48.858;8.530;2023-09-18T09:41:24;1.63;;;0.93;;
45650;SDS011;31365;48.858;8.530;2023-09-18T09:43:54;3.08;;;1.45;;
45650;SDS011;31365;48.858;8.530;2023-09-18T09:46:25;3.80;;;1.20;;
45650;SDS011;31365;48.858;8.530;2023-09-18T09:48:58;1.77;;;1.10;;
45650;SDS011;31365;48.858;8.530;2023-09-18T09:51:28;4.80;;;1.20;;
45650;SDS011;31365;48.858;8.530;2023-09-18T09:53:57;1.35;;;0.90;;
45650;SDS011;31365;48.858;8.530;2023-09-18T09:56:43;3.25;;;1.30;;
45650;SDS011;31365;48.858;8.530;2023-09-18T09:59:14;3.47;;;1.15;;
45650;SDS011;31365;48.858;8.530;2023-09-18T10:01:47;3.97;;;1.25;;
45650;SDS011;31365;48.858;8.530;2023-09-18T10:04:17;4.60;;;1.42;;
45650;SDS011;31365;48.858;8.530;2023-09-18T10:06:51;3.78;;;1.15;;
45650;SDS011;31365;48.858;8.530;2023-09-18T10:09:25;6.03;;;1.45;;
45650;SDS011;31365;48.858;8.530;2023-09-18T10:11:56;2.50;;;1.02;;
45650;SDS011;31365;48.858;8.530;2023-09-18T10:14:29;2.92;;;1.08;;
45650;SDS011;31365;48.858;8.530;2023-09-18T10:17:22;2.00;;;1.02;;
45650;SDS011;31365;48.858;8.530;2023-09-18T10:19:52;2.92;;;1.33;;
45650;SDS011;31365;48.858;8.530;2023-09-18T10:22:37;4.53;;;1.40;;
45650;SDS011;31365;48.858;8.530;2023-09-18T10:25:10;2.22;;;1.08;;
45650;SDS011;31365;48.858;8.530;2023-09-18T10:27:46;3.53;;;1.30;;
45650;SDS011;31365;48.858;8.530;2023-09-18T10:30:19;2.63;;;1.52;;
45650;SDS011;31365;48.858;8.530;2023-09-18T10:32:51;1.70;;;1.20;;
45650;SDS011;31365;48.858;8.530;2023-09-18T10:35:20;2.83;;;0.85;;
45650;SDS011;31365;48.858;8.530;2023-09-18T10:37:50;1.70;;;0.95;;
45650;SDS011;31365;48.858;8.530;2023-09-18T10:40:21;1.00;;;1.00;;
45650;SDS011;31365;48.858;8.530;2023-09-18T10:42:54;1.55;;;1.02;;
45650;SDS011;31365;48.858;8.530;2023-09-18T10:45:24;1.70;;;1.00;;
45650;SDS011;31365;48.858;8.530;2023-09-18T10:47:54;2.80;;;1.10;;
45650;SDS011;31365;48.858;8.530;2023-09-18T10:50:25;2.88;;;0.70;;
45650;SDS011;31365;48.858;8.530;2023-09-18T10:52:56;2.58;;;0.95;;
45650;SDS011;31365;48.858;8.530;2023-09-18T10:55:25;1.67;;;0.70;;
45650;SDS011;31365;48.858;8.530;2023-09-18T10:57:55;1.02;;;0.75;;
45650;SDS011;31365;48.858;8.530;2023-09-18T11:00:26;3.28;;;1.00;;
45650;SDS011;31365;48.858;8.530;2023-09-18T11:03:13;2.63;;;0.80;;
45650;SDS011;31365;48.858;8.530;2023-09-18T11:05:44;2.80;;;0.80;;
45650;SDS011;31365;48.858;8.530;2023-09-18T11:08:23;1.30;;;1.00;;
45650;SDS011;31365;48.858;8.530;2023-09-18T11:11:00;1.13;;;0.80;;
45650;SDS011;31365;48.858;8.530;2023-09-18T11:13:38;0.77;;;0.77;;
45650;SDS011;31365;48.858;8.530;2023-09-18T11:16:18;2.70;;;0.70;;
45650;SDS011;31365;48.858;8.530;2023-09-18T11:19:07;2.72;;;1.02;;
45650;SDS011;31365;48.858;8.530;2023-09-18T11:21:39;2.75;;;0.73;;
45650;SDS011;31365;48.858;8.530;2023-09-18T11:24:07;1.13;;;0.70;;
45650;SDS011;31365;48.858;8.530;2023-09-18T11:26:45;1.73;;;1.00;;
45650;SDS011;31365;48.858;8.530;2023-09-18T11:29:15;0.82;;;0.70;;
45650;SDS011;31365;48.858;8.530;2023-09-18T11:31:49;1.42;;;0.77;;
45650;SDS011;31365;48.858;8.530;2023-09-18T11:34:21;2.75;;;1.00;;
45650;SDS011;31365;48.858;8.530;2023-09-18T11:36:53;2.05;;;0.88;;
45650;SDS011;31365;48.858;8.530;2023-09-18T11:39:35;1.77;;;1.05;;
45650;SDS011;31365;48.858;8.530;2023-09-18T11:42:09;1.20;;;1.00;;
45650;SDS011;31365;48.858;8.530;2023-09-18T11:44:40;1.42;;;0.85;;
45650;SDS011;31365;48.858;8.530;2023-09-18T11:47:09;3.20;;;1.13;;
45650;SDS011;31365;48.858;8.530;2023-09-18T11:49:47;1.00;;;0.77;;
45650;SDS011;31365;48.858;8.530;2023-09-18T11:52:22;1.48;;;0.88;;
45650;SDS011;31365;48.858;8.530;2023-09-18T11:54:52;2.05;;;0.80;;
45650;SDS011;31365;48.858;8.530;2023-09-18T11:57:23;2.05;;;1.10;;
45650;SDS011;31365;48.858;8.530;2023-09-18T11:59:52;2.33;;;1.10;;
45650;SDS011;31365;48.858;8.530;2023-09-18T12:02:26;3.05;;;1.10;;
45650;SDS011;31365;48.858;8.530;2023-09-18T12:05:09;3.17;;;0.95;;
45650;SDS011;31365;48.858;8.530;2023-09-18T12:07:41;0.90;;;0.82;;
45650;SDS011;31365;48.858;8.530;2023-09-18T12:10:13;1.38;;;0.80;;
45650;SDS011;31365;48.858;8.530;2023-09-18T12:12:44;1.35;;;0.90;;
45650;SDS011;31365;48.858;8.530;2023-09-18T12:15:12;1.92;;;1.00;;
45650;SDS011;31365;48.858;8.530;2023-09-18T12:17:46;3.60;;;0.82;;
45650;SDS011;31365;48.858;8.530;2023-09-18T12:20:17;1.13;;;0.80;;
45650;SDS011;31365;48.858;8.530;2023-09-18T12:22:46;3.22;;;1.10;;
45650;SDS011;31365;48.858;8.530;2023-09-18T12:25:17;2.30;;;0.77;;
45650;SDS011;31365;48.858;8.530;2023-09-18T12:27:46;1.48;;;1.35;;
45650;SDS011;31365;48.858;8.530;2023-09-18T12:30:19;1.63;;;0.88;;
45650;SDS011;31365;48.858;8.530;2023-09-18T12:32:50;0.88;;;0.80;;
45650;SDS011;31365;48.858;8.530;2023-09-18T12:35:22;1.35;;;0.75;;
45650;SDS011;31365;48.858;8.530;2023-09-18T12:37:56;1.45;;;1.30;;
45650;SDS011;31365;48.858;8.530;2023-09-18T12:40:26;1.67;;;0.98;;
45650;SDS011;31365;48.858;8.530;2023-09-18T12:42:56;1.10;;;0.75;;
45650;SDS011;31365;48.858;8.530;2023-09-18T12:45:27;3.05;;;1.20;;
45650;SDS011;31365;48.858;8.530;2023-09-18T12:47:57;2.17;;;1.10;;
45650;SDS011;31365;48.858;8.530;2023-09-18T12:50:28;4.05;;;1.17;;
45650;SDS011;31365;48.858;8.530;2023-09-18T12:53:06;1.40;;;0.93;;
45650;SDS011;31365;48.858;8.530;2023-09-18T12:55:36;4.30;;;0.90;;
45650;SDS011;31365;48.858;8.530;2023-09-18T12:58:05;1.58;;;1.20;;
45650;SDS011;31365;48.858;8.530;2023-09-18T13:00:35;1.40;;;0.88;;
45650;SDS011;31365;48.858;8.530;2023-09-18T13:03:03;2.45;;;1.02;;
45650;SDS011;31365;48.858;8.530;2023-09-18T13:05:33;3.08;;;1.27;;
45650;SDS011;31365;48.858;8.530;2023-09-18T13:08:03;0.70;;;0.68;;
45650;SDS011;31365;48.858;8.530;2023-09-18T13:10:43;1.55;;;0.82;;
45650;SDS011;31365;48.858;8.530;2023-09-18T13:13:16;0.88;;;0.80;;
45650;SDS011;31365;48.858;8.530;2023-09-18T13:15:45;5.63;;;1.08;;
45650;SDS011;31365;48.858;8.530;2023-09-18T13:18:17;3.38;;;0.85;;
45650;SDS011;31365;48.858;8.530;2023-09-18T13:20:47;0.75;;;0.50;;
45650;SDS011;31365;48.858;8.530;2023-09-18T13:23:15;2.47;;;1.08;;
45650;SDS011;31365;48.858;8.530;2023-09-18T13:25:47;2.40;;;1.00;;
45650;SDS011;31365;48.858;8.530;2023-09-18T13:28:15;2.42;;;1.00;;
45650;SDS011;31365;48.858;8.530;2023-09-18T13:30:47;1.70;;;0.88;;
45650;SDS011;31365;48.858;8.530;2023-09-18T13:33:16;1.10;;;0.85;;
45650;SDS011;31365;48.858;8.530;2023-09-18T13:35:47;2.90;;;0.90;;
45650;SDS011;31365;48.858;8.530;2023-09-18T13:38:16;2.80;;;1.10;;
45650;SDS011;31365;48.858;8.530;2023-09-18T13:40:46;1.58;;;0.80;;
45650;SDS011;31365;48.858;8.530;2023-09-18T13:43:14;2.10;;;1.00;;
45650;SDS011;31365;48.858;8.530;2023-09-18T13:45:45;2.60;;;1.17;;
45650;SDS011;31365;48.858;8.530;2023-09-18T13:48:13;2.35;;;1.15;;
45650;SDS011;31365;48.858;8.530;2023-09-18T13:50:42;1.58;;;0.95;;
45650;SDS011;31365;48.858;8.530;2023-09-18T13:53:13;2.60;;;1.10;;
45650;SDS011;31365;48.858;8.530;2023-09-18T13:55:42;2.85;;;1.60;;
45650;SDS011;31365;48.858;8.530;2023-09-18T13:58:10;3.00;;;1.10;;
45650;SDS011;31365;48.858;8.530;2023-09-18T14:00:39;3.67;;;1.25;;
45650;SDS011;31365;48.858;8.530;2023-09-18T14:03:09;2.03;;;1.17;;
45650;SDS011;31365;48.858;8.530;2023-09-18T14:05:41;1.75;;;1.30;;
45650;SDS011;31365;48.858;8.530;2023-09-18T14:08:10;1.70;;;1.10;;
45650;SDS011;31365;48.858;8.530;2023-09-18T14:10:40;3.45;;;1.48;;
45650;SDS011;31365;48.858;8.530;2023-09-18T14:13:09;2.70;;;1.05;;
45650;SDS011;31365;48.858;8.530;2023-09-18T14:15:37;2.47;;;1.08;;
45650;SDS011;31365;48.858;8.530;2023-09-18T14:18:06;1.45;;;0.88;;
45650;SDS011;31365;48.858;8.530;2023-09-18T14:20:35;4.38;;;1.45;;
45650;SDS011;31365;48.858;8.530;2023-09-18T14:23:04;1.92;;;1.33;;
45650;SDS011;31365;48.858;8.530;2023-09-18T14:25:32;2.08;;;1.30;;
45650;SDS011;31365;48.858;8.530;2023-09-18T14:28:03;2.08;;;1.25;;
45650;SDS011;31365;48.858;8.530;2023-09-18T14:30:31;2.67;;;1.60;;
45650;SDS011;31365;48.858;8.530;2023-09-18T14:33:01;3.40;;;1.27;;
45650;SDS011;31365;48.858;8.530;2023-09-18T14:35:29;2.17;;;1.00;;
45650;SDS011;31365;48.858;8.530;2023-09-18T14:37:57;2.08;;;1.00;;
45650;SDS011;31365;48.858;8.530;2023-09-18T14:40:25;1.30;;;0.93;;
45650;SDS011;31365;48.858;8.530;2023-09-18T14:42:54;1.40;;;0.80;;
45650;SDS011;31365;48.858;8.530;2023-09-18T14:45:24;1.77;;;1.05;;
45650;SDS011;31365;48.858;8.530;2023-09-18T14:47:52;2.10;;;1.25;;
45650;SDS011;31365;48.858;8.530;2023-09-18T14:50:21;1.55;;;1.25;;
45650;SDS011;31365;48.858;8.530;2023-09-18T14:52:49;3.50;;;1.10;;
45650;SDS011;31365;48.858;8.530;2023-09-18T14:55:17;1.98;;;1.25;;
45650;SDS011;31365;48.858;8.530;2023-09-18T14:57:46;4.40;;;1.08;;
45650;SDS011;31365;48.858;8.530;2023-09-18T15:00:20;2.35;;;1.30;;
45650;SDS011;31365;48.858;8.530;2023-09-18T15:02:50;2.08;;;1.15;;
45650;SDS011;31365;48.858;8.530;2023-09-18T15:05:37;0.88;;;0.88;;